createdAt,value
2018-02-17T00:01:52.010Z,23.92
2018-02-17T00:04:20.143Z,29.48
2018-02-17T00:06:48.242Z,23.98
2018-02-17T00:09:16.324Z,21.00
2018-02-17T00:11:44.671Z,18.08
2018-02-17T00:14:12.875Z,20.08
2018-02-17T00:16:41.041Z,25.08
2018-02-17T00:19:09.164Z,22.65
2018-02-17T00:21:37.363Z,20.88
2018-02-17T00:24:05.385Z,21.65
2018-02-17T00:26:33.581Z,24.08
2018-02-17T00:29:01.574Z,20.80
2018-02-17T00:31:29.732Z,22.83
2018-02-17T00:33:57.796Z,20.62
2018-02-17T00:36:26.023Z,26.87
2018-02-17T00:38:54.042Z,22.23
2018-02-17T00:41:22.102Z,23.20
2018-02-17T00:43:50.102Z,20.02
2018-02-17T00:46:18.382Z,22.50
2018-02-17T00:48:46.517Z,20.20
2018-02-17T00:51:14.829Z,23.20
2018-02-17T00:53:42.950Z,21.77
2018-02-17T00:56:11.189Z,21.23
2018-02-17T00:58:39.472Z,24.70
2018-02-17T01:01:07.590Z,23.02
2018-02-17T01:03:35.647Z,21.30
2018-02-17T01:06:03.716Z,24.17
2018-02-17T01:08:31.919Z,18.37
2018-02-17T01:10:59.920Z,17.45
2018-02-17T01:13:27.981Z,20.15
2018-02-17T01:15:56.022Z,23.33
2018-02-17T01:18:24.024Z,18.00
2018-02-17T01:20:52.070Z,30.73
2018-02-17T01:23:20.243Z,25.42
2018-02-17T01:25:48.337Z,21.10
2018-02-17T01:28:16.543Z,32.03
2018-02-17T01:30:44.736Z,31.40
2018-02-17T01:33:12.979Z,19.67
2018-02-17T01:35:41.074Z,22.95
2018-02-17T01:38:09.326Z,19.87
2018-02-17T01:40:37.275Z,21.00
2018-02-17T01:43:05.457Z,22.67
2018-02-17T01:45:33.516Z,20.20
2018-02-17T01:48:01.546Z,20.08
2018-02-17T01:50:29.613Z,19.02
2018-02-17T01:52:57.820Z,22.13
2018-02-17T01:55:25.910Z,20.27
2018-02-17T01:57:54.175Z,27.58
2018-02-17T02:00:22.303Z,20.23
2018-02-17T02:07:27.760Z,17.10
2018-02-17T02:09:55.966Z,24.00
2018-02-17T02:12:23.988Z,22.15
2018-02-17T02:14:52.047Z,26.87
2018-02-17T02:19:54.054Z,21.25
2018-02-17T02:22:24.474Z,18.87
2018-02-17T02:24:52.509Z,21.35
2018-02-17T02:27:20.800Z,19.62
2018-02-17T02:29:49.034Z,22.05
2018-02-17T02:32:21.555Z,18.52
2018-02-17T02:34:50.274Z,18.55
2018-02-17T02:37:19.601Z,17.90
2018-02-17T02:39:48.362Z,19.52
2018-02-17T02:42:17.522Z,22.23
2018-02-17T02:44:46.442Z,18.37
2018-02-17T02:47:15.800Z,20.55
2018-02-17T02:49:44.156Z,18.90
2018-02-17T02:52:12.859Z,20.05
2018-02-17T02:54:41.460Z,21.52
2018-02-17T02:57:09.861Z,21.20
2018-02-17T02:59:38.358Z,18.02
2018-02-17T03:02:06.558Z,22.95
2018-02-17T03:04:34.871Z,19.65
2018-02-17T03:07:05.408Z,20.25
2018-02-17T03:09:33.546Z,18.27
2018-02-17T03:12:01.687Z,24.40
2018-02-17T03:14:29.857Z,19.95
2018-02-17T03:16:58.041Z,18.42
2018-02-17T03:19:26.469Z,24.25
2018-02-17T03:21:54.778Z,16.17
2018-02-17T03:24:23.168Z,22.33
2018-02-17T03:26:51.671Z,17.98
2018-02-17T03:29:20.588Z,20.65
2018-02-17T03:31:48.983Z,21.23
2018-02-17T03:34:17.693Z,14.70
2018-02-17T03:36:46.298Z,19.65
2018-02-17T03:39:15.650Z,18.15
2018-02-17T03:41:44.109Z,22.02
2018-02-17T03:44:12.519Z,17.98
2018-02-17T03:46:40.824Z,20.73
2018-02-17T03:49:09.162Z,18.77
2018-02-17T03:51:37.397Z,18.42
2018-02-17T03:54:06.107Z,21.10
2018-02-17T03:56:34.396Z,16.98
2018-02-17T03:59:02.661Z,17.75
2018-02-17T04:01:30.820Z,17.58
2018-02-17T04:03:59.115Z,18.80
2018-02-17T04:06:27.116Z,18.10
2018-02-17T04:08:55.581Z,16.10
2018-02-17T04:11:23.684Z,20.35
2018-02-17T04:13:51.872Z,19.98
2018-02-17T04:16:19.974Z,19.10
2018-02-17T04:18:48.259Z,15.93
2018-02-17T04:21:16.433Z,16.55
2018-02-17T04:23:44.822Z,18.25
2018-02-17T04:26:12.961Z,14.35
2018-02-17T04:28:41.884Z,20.15
2018-02-17T04:31:10.054Z,28.27
2018-02-17T04:33:38.335Z,14.43
2018-02-17T04:36:06.435Z,18.95
2018-02-17T04:38:34.684Z,23.83
2018-02-17T04:41:03.027Z,18.83
2018-02-17T04:43:31.223Z,23.08
2018-02-17T04:45:59.340Z,17.12
2018-02-17T04:48:27.744Z,18.65
2018-02-17T04:58:36.949Z,19.02
2018-02-17T05:01:04.984Z,19.83
2018-02-17T05:03:33.197Z,18.08
2018-02-17T05:06:01.211Z,22.17
2018-02-17T05:08:29.316Z,21.08
2018-02-17T05:10:57.410Z,30.73
2018-02-17T05:13:25.666Z,21.48
2018-02-17T05:15:53.786Z,23.17
2018-02-17T05:18:22.096Z,25.60
2018-02-17T05:20:50.257Z,20.10
2018-02-17T05:23:18.890Z,25.83
2018-02-17T05:25:47.088Z,18.40
2018-02-17T05:28:15.609Z,16.23
2018-02-17T05:30:43.782Z,18.67
2018-02-17T05:33:12.070Z,21.27
2018-02-17T05:35:40.026Z,20.90
2018-02-17T05:38:08.164Z,21.20
2018-02-17T05:40:36.495Z,18.30
2018-02-17T05:45:47.866Z,14.20
2018-02-17T05:48:15.983Z,17.40
2018-02-17T05:50:44.166Z,20.20
2018-02-17T05:53:12.308Z,17.17
2018-02-17T05:55:40.262Z,22.20
2018-02-17T05:58:09.355Z,21.75
2018-02-17T06:00:37.652Z,19.92
2018-02-17T06:03:05.661Z,25.00
2018-02-17T06:05:33.918Z,20.10
2018-02-17T06:08:02.026Z,19.10
2018-02-17T06:10:30.209Z,17.48
2018-02-17T06:12:58.462Z,19.55
2018-02-17T06:15:26.820Z,21.58
2018-02-17T06:17:55.212Z,17.12
2018-02-17T06:20:23.606Z,21.27
2018-02-17T06:22:51.760Z,16.67
2018-02-17T06:25:20.294Z,21.48
2018-02-17T06:27:48.695Z,17.52
2018-02-17T06:30:17.196Z,23.42
2018-02-17T06:32:45.255Z,18.70
2018-02-17T06:35:13.255Z,18.77
2018-02-17T06:37:41.460Z,22.75
2018-02-17T06:40:09.774Z,21.25
2018-02-17T06:42:37.774Z,21.70
2018-02-17T06:45:06.020Z,20.00
2018-02-17T06:47:34.118Z,23.02
2018-02-17T06:50:02.347Z,18.02
2018-02-17T06:52:30.413Z,20.70
2018-02-17T06:54:58.954Z,24.25
2018-02-17T06:57:27.333Z,20.92
2018-02-17T06:59:55.566Z,21.92
2018-02-17T07:02:23.932Z,20.45
2018-02-17T07:04:52.262Z,18.50
2018-02-17T07:07:20.354Z,19.67
2018-02-17T07:09:48.657Z,16.83
2018-02-17T07:12:16.750Z,20.02
2018-02-17T07:14:44.878Z,21.87
2018-02-17T07:17:12.898Z,21.90
2018-02-17T07:19:41.027Z,25.42
2018-02-17T07:22:09.009Z,19.62
2018-02-17T07:24:37.284Z,23.67
2018-02-17T07:27:05.329Z,19.12
2018-02-17T07:29:33.603Z,16.80
2018-02-17T07:32:01.753Z,20.48
2018-02-17T07:34:29.920Z,22.27
2018-02-17T07:36:58.069Z,20.20
2018-02-17T07:39:26.212Z,21.10
2018-02-17T07:41:54.388Z,19.77
2018-02-17T07:44:22.740Z,22.85
2018-02-17T07:46:51.741Z,20.92
2018-02-17T07:49:19.929Z,20.88
2018-02-17T07:51:48.003Z,18.00
2018-02-17T07:54:16.161Z,21.27
2018-02-17T07:56:44.181Z,22.77
2018-02-17T07:59:12.258Z,19.23
2018-02-17T08:01:40.376Z,23.02
2018-02-17T08:04:08.414Z,25.67
2018-02-17T08:06:36.412Z,17.90
2018-02-17T08:09:04.461Z,20.42
2018-02-17T08:11:32.567Z,25.98
2018-02-17T08:14:00.605Z,19.05
2018-02-17T08:16:28.902Z,20.33
2018-02-17T08:18:57.099Z,21.85
2018-02-17T08:21:25.312Z,22.50
2018-02-17T08:23:53.492Z,24.08
2018-02-17T08:26:21.563Z,16.05
2018-02-17T08:28:49.543Z,22.23
2018-02-17T08:31:17.665Z,21.48
2018-02-17T08:33:45.733Z,22.95
2018-02-17T08:36:13.877Z,22.95
2018-02-17T08:38:41.889Z,24.33
2018-02-17T08:41:09.951Z,19.20
2018-02-17T08:43:37.914Z,21.45
2018-02-17T08:46:06.028Z,24.90
2018-02-17T08:48:34.228Z,26.25
2018-02-17T08:51:02.443Z,21.60
2018-02-17T08:53:30.525Z,22.92
2018-02-17T08:55:58.688Z,23.48
2018-02-17T08:58:26.753Z,26.02
2018-02-17T09:00:54.886Z,25.10
2018-02-17T09:03:23.090Z,25.48
2018-02-17T09:05:51.158Z,24.42
2018-02-17T09:08:19.101Z,22.83
2018-02-17T09:10:47.177Z,21.48
2018-02-17T09:13:15.156Z,24.00
2018-02-17T09:15:43.261Z,24.73
2018-02-17T09:18:11.239Z,21.40
2018-02-17T09:20:39.320Z,24.00
2018-02-17T09:23:07.288Z,19.90
2018-02-17T09:25:35.431Z,21.62
2018-02-17T09:28:03.715Z,22.00
2018-02-17T09:30:32.026Z,19.55
2018-02-17T09:33:00.225Z,22.60
2018-02-17T09:35:28.412Z,24.75
2018-02-17T09:37:56.818Z,24.05
2018-02-17T09:40:25.113Z,22.13
2018-02-17T09:42:53.193Z,19.87
2018-02-17T09:45:21.246Z,20.58
2018-02-17T09:47:49.473Z,20.95
2018-02-17T09:50:17.694Z,24.90
2018-02-17T09:52:45.777Z,23.58
2018-02-17T09:55:13.982Z,17.08
2018-02-17T09:57:42.055Z,19.80
2018-02-17T10:00:10.262Z,18.40
2018-02-17T10:02:38.755Z,22.42
2018-02-17T10:05:06.943Z,20.37
2018-02-17T10:07:35.358Z,19.75
2018-02-17T10:10:03.739Z,19.70
2018-02-17T10:12:32.898Z,28.48
2018-02-17T10:15:01.102Z,22.87
2018-02-17T10:17:29.358Z,21.65
2018-02-17T10:19:57.753Z,23.55
2018-02-17T10:22:26.053Z,22.40
2018-02-17T10:24:53.973Z,22.40
2018-02-17T10:27:22.136Z,29.17
2018-02-17T10:29:50.336Z,30.70
2018-02-17T10:32:18.518Z,29.00
2018-02-17T10:34:46.675Z,28.60
2018-02-17T10:37:15.014Z,31.37
2018-02-17T10:39:43.222Z,32.78
2018-02-17T10:42:11.501Z,27.15
2018-02-17T10:44:39.805Z,28.23
2018-02-17T10:47:08.098Z,31.75
2018-02-17T10:49:36.398Z,37.35
2018-02-17T10:52:04.598Z,30.85
2018-02-17T10:54:32.736Z,28.87
2018-02-17T10:57:01.056Z,29.58
2018-02-17T10:59:29.276Z,30.10
2018-02-17T11:01:57.576Z,30.30
2018-02-17T11:04:25.697Z,28.48
2018-02-17T11:06:53.782Z,30.00
2018-02-17T11:09:22.064Z,25.52
2018-02-17T11:11:50.243Z,26.73
2018-02-17T11:14:18.448Z,29.63
2018-02-17T11:16:46.624Z,31.75
2018-02-17T11:19:14.739Z,25.77
2018-02-17T11:21:42.918Z,32.60
2018-02-17T11:24:11.009Z,27.45
2018-02-17T11:26:39.295Z,31.52
2018-02-17T11:29:07.533Z,26.95
2018-02-17T11:31:35.799Z,27.73
2018-02-17T11:34:04.105Z,26.17
2018-02-17T11:36:32.298Z,28.38
2018-02-17T11:39:00.494Z,26.87
2018-02-17T11:41:28.790Z,28.23
2018-02-17T11:43:56.880Z,25.33
2018-02-17T11:46:25.074Z,31.98
2018-02-17T11:48:53.171Z,24.20
2018-02-17T11:51:21.146Z,30.20
2018-02-17T11:53:49.244Z,28.17
2018-02-17T11:56:17.433Z,30.20
2018-02-17T11:58:45.633Z,23.27
2018-02-17T12:01:13.927Z,25.40
2018-02-17T12:03:42.121Z,25.27
2018-02-17T12:06:10.429Z,24.80
2018-02-17T12:08:38.730Z,23.40
2018-02-17T12:11:06.912Z,26.00
2018-02-17T12:13:35.099Z,27.80
2018-02-17T12:16:03.201Z,27.67
2018-02-17T12:18:31.298Z,28.58
2018-02-17T12:20:59.489Z,29.63
2018-02-17T12:23:27.573Z,26.15
2018-02-17T12:25:55.675Z,19.83
2018-02-17T12:28:23.891Z,22.42
2018-02-17T12:30:52.049Z,25.88
2018-02-17T12:33:20.252Z,23.35
2018-02-17T12:35:49.687Z,24.52
2018-02-17T12:38:17.874Z,23.73
2018-02-17T12:40:46.069Z,23.60
2018-02-17T12:43:14.253Z,25.70
2018-02-17T12:45:42.350Z,25.62
2018-02-17T12:48:10.440Z,26.52
2018-02-17T12:50:38.533Z,27.48
2018-02-17T12:53:06.828Z,22.58
2018-02-17T12:55:35.130Z,24.00
2018-02-17T12:58:03.428Z,28.42
2018-02-17T13:00:31.521Z,27.37
2018-02-17T13:02:59.802Z,31.48
2018-02-17T13:05:28.022Z,27.50
2018-02-17T13:07:56.145Z,23.08
2018-02-17T13:10:24.428Z,28.50
2018-02-17T13:12:52.525Z,28.95
2018-02-17T13:15:20.665Z,25.98
2018-02-17T13:17:48.737Z,23.62
2018-02-17T13:20:16.875Z,24.90
2018-02-17T13:22:45.056Z,30.35
2018-02-17T13:25:13.243Z,26.33
2018-02-17T13:27:41.455Z,30.37
2018-02-17T13:30:09.636Z,29.08
2018-02-17T13:32:37.832Z,30.60
2018-02-17T13:35:05.870Z,27.35
2018-02-17T13:37:34.137Z,28.70
2018-02-17T13:40:02.224Z,25.83
2018-02-17T13:42:30.410Z,25.80
2018-02-17T13:44:58.602Z,26.87
2018-02-17T13:47:26.806Z,29.33
2018-02-17T13:49:55.005Z,34.90
2018-02-17T13:52:23.192Z,27.95
2018-02-17T13:54:51.284Z,28.38
2018-02-17T13:57:20.181Z,26.35
2018-02-17T13:59:48.320Z,26.52
2018-02-17T14:02:16.476Z,27.55
2018-02-17T14:04:45.694Z,25.55
2018-02-17T14:07:13.995Z,25.20
2018-02-17T14:09:42.288Z,26.30
2018-02-17T14:12:10.580Z,29.45
2018-02-17T14:14:38.685Z,24.83
2018-02-17T14:17:07.016Z,26.55
2018-02-17T14:19:35.260Z,26.45
2018-02-17T14:22:03.383Z,27.17
2018-02-17T14:24:31.566Z,25.60
2018-02-17T14:26:59.757Z,25.77
2018-02-17T14:29:27.895Z,20.65
2018-02-17T14:31:56.284Z,25.70
2018-02-17T14:34:24.258Z,21.05
2018-02-17T14:36:53.568Z,22.75
2018-02-17T14:39:21.740Z,19.77
2018-02-17T14:41:49.940Z,21.77
2018-02-17T14:44:18.039Z,19.70
2018-02-17T14:46:46.342Z,21.02
2018-02-17T14:49:14.717Z,23.02
2018-02-17T14:51:44.037Z,25.33
2018-02-17T14:54:12.348Z,21.62
2018-02-17T14:56:40.438Z,21.55
2018-02-17T14:59:08.635Z,22.27
2018-02-17T15:01:36.935Z,20.83
2018-02-17T15:04:05.119Z,20.70
2018-02-17T15:06:33.361Z,21.00
2018-02-17T15:09:01.506Z,23.45
2018-02-17T15:11:29.617Z,25.75
2018-02-17T15:13:57.800Z,27.80
2018-02-17T15:16:25.879Z,24.20
2018-02-17T15:18:53.997Z,22.55
2018-02-17T15:21:22.076Z,25.62
2018-02-17T15:23:50.162Z,21.90
2018-02-17T15:26:18.178Z,20.83
2018-02-17T15:28:46.441Z,22.80
2018-02-17T15:31:14.543Z,25.30
2018-02-17T15:33:43.227Z,23.70
2018-02-17T15:36:11.960Z,26.17
2018-02-17T15:38:40.523Z,23.70
2018-02-17T15:41:08.857Z,30.67
2018-02-17T15:43:37.247Z,28.05
2018-02-17T15:46:05.555Z,30.25
2018-02-17T15:48:33.758Z,26.02
2018-02-17T15:51:01.850Z,30.20
2018-02-17T15:53:30.036Z,25.37
2018-02-17T15:55:58.116Z,28.62
2018-02-17T15:58:26.258Z,33.30
2018-02-17T16:00:54.440Z,28.25
2018-02-17T16:03:22.770Z,26.87
2018-02-17T16:05:50.899Z,26.40
2018-02-17T16:08:19.267Z,25.75
2018-02-17T16:10:47.639Z,25.98
2018-02-17T16:13:15.775Z,27.40
2018-02-17T16:15:43.942Z,25.15
2018-02-17T16:18:11.988Z,27.50
2018-02-17T16:20:40.082Z,27.10
2018-02-17T16:23:08.144Z,28.40
2018-02-17T16:25:36.261Z,28.45
2018-02-17T16:28:04.507Z,34.10
2018-02-17T16:30:32.616Z,26.45
2018-02-17T16:33:00.859Z,28.62
2018-02-17T16:35:29.041Z,31.05
2018-02-17T16:37:57.979Z,32.63
2018-02-17T16:40:26.199Z,28.52
2018-02-17T16:42:54.497Z,28.80
2018-02-17T16:45:22.568Z,23.55
2018-02-17T16:47:50.829Z,31.42
2018-02-17T16:50:19.121Z,25.27
2018-02-17T16:52:47.336Z,26.98
2018-02-17T16:55:15.719Z,25.15
2018-02-17T16:57:44.316Z,29.48
2018-02-17T17:00:12.293Z,28.10
2018-02-17T17:02:40.581Z,31.48
2018-02-17T17:05:08.583Z,31.75
2018-02-17T17:07:37.614Z,31.75
2018-02-17T17:10:05.738Z,26.58
2018-02-17T17:12:34.148Z,24.25
2018-02-17T17:15:02.787Z,27.77
2018-02-17T17:17:31.360Z,30.40
2018-02-17T17:19:59.410Z,29.25
2018-02-17T17:22:27.382Z,31.15
2018-02-17T17:24:55.576Z,35.88
2018-02-17T17:27:23.782Z,29.73
2018-02-17T17:29:51.862Z,30.62
2018-02-17T17:32:20.106Z,33.42
2018-02-17T17:34:48.452Z,32.83
2018-02-17T17:37:16.460Z,37.60
2018-02-17T17:39:44.568Z,36.15
2018-02-17T17:42:12.624Z,37.58
2018-02-17T17:44:40.683Z,33.80
2018-02-17T17:47:08.715Z,35.30
2018-02-17T17:49:37.003Z,33.25
2018-02-17T17:52:05.317Z,37.40
2018-02-17T17:54:33.935Z,39.10
2018-02-17T17:57:02.201Z,30.73
2018-02-17T17:59:30.298Z,36.25
2018-02-17T18:01:58.464Z,35.72
2018-02-17T18:04:26.790Z,32.33
2018-02-17T18:06:54.976Z,40.38
2018-02-17T18:09:23.277Z,37.80
2018-02-17T18:11:51.477Z,33.08
2018-02-17T18:14:19.725Z,34.80
2018-02-17T18:16:47.857Z,42.08
2018-02-17T18:19:16.672Z,36.85
2018-02-17T18:21:44.867Z,38.08
2018-02-17T18:24:12.952Z,33.90
2018-02-17T18:26:41.056Z,31.00
2018-02-17T18:29:09.137Z,35.90
2018-02-17T18:31:37.460Z,28.67
2018-02-17T18:34:05.540Z,32.30
2018-02-17T18:36:33.620Z,37.63
2018-02-17T18:39:01.959Z,41.45
2018-02-17T18:41:30.333Z,38.85
2018-02-17T18:43:58.620Z,42.47
2018-02-17T18:46:26.721Z,42.13
2018-02-17T18:48:54.805Z,40.72
2018-02-17T18:51:22.999Z,37.13
2018-02-17T18:53:51.080Z,35.53
2018-02-17T18:56:19.178Z,42.05
2018-02-17T18:58:47.279Z,47.10
2018-02-17T19:01:15.459Z,50.20
2018-02-17T19:03:43.660Z,57.03
2018-02-17T19:06:11.861Z,58.35
2018-02-17T19:08:40.461Z,58.45
2018-02-17T19:11:08.648Z,50.22
2018-02-17T19:13:36.849Z,49.17
2018-02-17T19:16:05.156Z,51.65
2018-02-17T19:18:33.548Z,45.10
2018-02-17T19:21:01.729Z,46.97
2018-02-17T19:23:29.837Z,39.35
2018-02-17T19:25:57.918Z,42.38
2018-02-17T19:28:26.016Z,42.77
2018-02-17T19:30:54.060Z,40.95
2018-02-17T19:33:22.292Z,42.53
2018-02-17T19:35:50.354Z,45.80
2018-02-17T19:38:18.530Z,47.17
2018-02-17T19:40:46.733Z,41.42
2018-02-17T19:43:14.983Z,40.85
2018-02-17T19:45:43.171Z,43.15
2018-02-17T19:48:11.184Z,40.65
2018-02-17T19:50:39.563Z,36.88
2018-02-17T19:53:07.763Z,39.30
2018-02-17T19:55:36.150Z,39.67
2018-02-17T19:58:04.451Z,38.72
2018-02-17T20:00:32.650Z,39.88
2018-02-17T20:03:00.938Z,47.40
2018-02-17T20:05:29.242Z,48.35
2018-02-17T20:07:57.636Z,51.88
2018-02-17T20:10:25.829Z,47.55
2018-02-17T20:12:53.815Z,48.38
2018-02-17T20:15:22.116Z,51.08
2018-02-17T20:17:50.314Z,45.97
2018-02-17T20:20:18.395Z,43.80
2018-02-17T20:22:46.493Z,49.70
2018-02-17T20:25:14.594Z,48.35
2018-02-17T20:27:42.874Z,43.50
2018-02-17T20:30:11.074Z,43.08
2018-02-17T20:32:39.263Z,45.03
2018-02-17T20:35:07.363Z,50.40
2018-02-17T20:37:35.457Z,42.90
2018-02-17T20:40:03.588Z,46.47
2018-02-17T20:42:31.644Z,45.70
2018-02-17T20:44:59.831Z,42.53
2018-02-17T20:47:28.135Z,50.17
2018-02-17T20:49:56.216Z,45.42
2018-02-17T20:52:24.310Z,44.28
2018-02-17T20:54:52.410Z,38.40
2018-02-17T20:57:20.582Z,46.37
2018-02-17T20:59:48.688Z,44.70
2018-02-17T21:02:16.897Z,48.00
2018-02-17T21:04:45.090Z,43.83
2018-02-17T21:07:13.379Z,46.55
2018-02-17T21:09:41.679Z,47.33
2018-02-17T21:12:09.860Z,45.70
2018-02-17T21:14:38.160Z,45.97
2018-02-17T21:17:06.259Z,46.25
2018-02-17T21:19:34.559Z,46.53
2018-02-17T21:22:02.739Z,45.33
2018-02-17T21:24:31.144Z,47.62
2018-02-17T21:27:00.158Z,48.13
2018-02-17T21:29:28.247Z,42.15
2018-02-17T21:31:56.437Z,50.40
2018-02-17T21:34:25.981Z,44.30
2018-02-17T21:36:54.168Z,44.25
2018-02-17T21:39:22.257Z,43.28
2018-02-17T21:41:50.457Z,41.90
2018-02-17T21:44:18.644Z,48.05
2018-02-17T21:46:46.824Z,48.40
2018-02-17T21:49:14.923Z,49.15
2018-02-17T21:51:43.126Z,45.22
2018-02-17T21:54:11.245Z,43.70
2018-02-17T21:56:39.405Z,47.60
2018-02-17T21:59:07.515Z,46.20
2018-02-17T22:01:35.895Z,48.28
2018-02-17T22:04:03.995Z,45.97
2018-02-17T22:06:32.097Z,49.45
2018-02-17T22:09:00.397Z,43.65
2018-02-17T22:11:28.578Z,54.15
2018-02-17T22:13:56.778Z,55.83
2018-02-17T22:16:24.959Z,47.08
2018-02-17T22:18:53.084Z,48.45
2018-02-17T22:21:21.240Z,58.20
2018-02-17T22:23:49.543Z,45.72
2018-02-17T22:26:17.841Z,52.28
2018-02-17T22:28:45.942Z,50.42
2018-02-17T22:31:14.225Z,53.35
2018-02-17T22:33:42.422Z,52.58
2018-02-17T22:36:10.642Z,56.28
2018-02-17T22:38:38.723Z,48.08
2018-02-17T22:41:06.923Z,44.95
2018-02-17T22:43:35.718Z,45.80
2018-02-17T22:46:03.915Z,46.33
2018-02-17T22:48:32.002Z,47.80
2018-02-17T22:51:00.174Z,46.42
2018-02-17T22:53:28.296Z,53.20
2018-02-17T22:55:56.494Z,47.72
2018-02-17T22:58:24.674Z,52.62
2018-02-17T23:00:52.887Z,51.13
2018-02-17T23:03:20.855Z,59.90
2018-02-17T23:05:49.159Z,50.60
2018-02-17T23:08:17.359Z,59.58
2018-02-17T23:10:45.455Z,62.85
2018-02-17T23:13:13.545Z,55.60
2018-02-17T23:15:41.743Z,65.30
2018-02-17T23:18:09.949Z,68.35
2018-02-17T23:20:38.223Z,96.57
2018-02-17T23:23:06.322Z,72.20
2018-02-17T23:25:35.441Z,58.60
2018-02-17T23:28:03.521Z,76.25
2018-02-17T23:30:31.723Z,76.68
2018-02-17T23:32:59.801Z,79.93
2018-02-17T23:35:28.004Z,60.12
2018-02-17T23:37:56.704Z,61.13
2018-02-17T23:40:24.804Z,59.92
2018-02-17T23:42:52.907Z,52.50
2018-02-17T23:45:21.016Z,50.65
2018-02-17T23:47:49.073Z,50.55
2018-02-17T23:50:17.169Z,52.58
2018-02-17T23:52:45.372Z,51.37
2018-02-17T23:55:13.562Z,52.45
2018-02-17T23:57:41.870Z,50.03
